sensor_id;sensor_type;location;lat;lon;timestamp;pressure;altitude;pressure_sealevel;temperature;humidity
69982;BME280;57319;56.274;43.980;2024-03-02T00:00:38;101083.06;;;-0.33;100.00
69982;BME280;57319;56.274;43.980;2024-03-02T00:03:06;101077.91;;;-0.35;100.00
69982;BME280;57319;56.274;43.980;2024-03-02T00:05:32;101074.38;;;-0.38;100.00
69982;BME280;57319;56.274;43.980;2024-03-02T00:07:58;101082.91;;;-0.36;100.00
69982;BME280;57319;56.274;43.980;2024-03-02T00:10:26;101086.75;;;-0.43;100.00
69982;BME280;57319;56.274;43.980;2024-03-02T00:12:57;101080.84;;;-0.43;100.00
69982;BME280;57319;56.274;43.980;2024-03-02T00:18:39;101083.38;;;-0.43;100.00
69982;BME280;57319;56.274;43.980;2024-03-02T00:21:06;101078.53;;;-0.39;100.00
69982;BME280;57319;56.274;43.980;2024-03-02T00:23:36;101079.59;;;-0.35;100.00
69982;BME280;57319;56.274;43.980;2024-03-02T00:26:02;101081.56;;;-0.29;100.00
69982;BME280;57319;56.274;43.980;2024-03-02T00:28:33;101086.63;;;-0.29;100.00
69982;BME280;57319;56.274;43.980;2024-03-02T00:31:07;101075.72;;;-0.28;100.00
69982;BME280;57319;56.274;43.980;2024-03-02T00:33:35;101079.19;;;-0.26;100.00
69982;BME280;57319;56.274;43.980;2024-03-02T00:36:05;101085.84;;;-0.28;100.00
69982;BME280;57319;56.274;43.980;2024-03-02T00:38:32;101080.22;;;-0.39;100.00
69982;BME280;57319;56.274;43.980;2024-03-02T00:41:05;101079.66;;;-0.33;100.00
69982;BME280;57319;56.274;43.980;2024-03-02T00:46:18;101089.69;;;-0.35;100.00
69982;BME280;57319;56.274;43.980;2024-03-02T00:49:04;101084.50;;;-0.38;100.00
69982;BME280;57319;56.274;43.980;2024-03-02T00:51:32;101090.25;;;-0.41;100.00
69982;BME280;57319;56.274;43.980;2024-03-02T00:54:00;101094.88;;;-0.48;100.00
69982;BME280;57319;56.274;43.980;2024-03-02T00:56:29;101094.94;;;-0.63;100.00
69982;BME280;57319;56.274;43.980;2024-03-02T00:58:55;101088.47;;;-0.58;100.00
69982;BME280;57319;56.274;43.980;2024-03-02T01:01:21;101083.19;;;-0.63;100.00
69982;BME280;57319;56.274;43.980;2024-03-02T01:03:47;101092.50;;;-0.62;100.00
69982;BME280;57319;56.274;43.980;2024-03-02T01:06:12;101094.41;;;-0.58;100.00
69982;BME280;57319;56.274;43.980;2024-03-02T01:08:39;101093.44;;;-0.60;100.00
69982;BME280;57319;56.274;43.980;2024-03-02T01:11:05;101096.28;;;-0.70;100.00
69982;BME280;57319;56.274;43.980;2024-03-02T01:13:31;101095.97;;;-0.60;100.00
69982;BME280;57319;56.274;43.980;2024-03-02T01:15:57;101093.53;;;-0.58;100.00
69982;BME280;57319;56.274;43.980;2024-03-02T01:18:23;101092.81;;;-0.56;100.00
69982;BME280;57319;56.274;43.980;2024-03-02T01:20:49;101100.03;;;-0.47;100.00
69982;BME280;57319;56.274;43.980;2024-03-02T01:23:22;101100.22;;;-0.44;100.00
69982;BME280;57319;56.274;43.980;2024-03-02T01:25:48;101105.34;;;-0.42;100.00
69982;BME280;57319;56.274;43.980;2024-03-02T01:28:14;101099.66;;;-0.38;100.00
69982;BME280;57319;56.274;43.980;2024-03-02T01:30:40;101105.84;;;-0.33;100.00
69982;BME280;57319;56.274;43.980;2024-03-02T01:33:06;101107.66;;;-0.30;100.00
69982;BME280;57319;56.274;43.980;2024-03-02T01:35:32;101104.25;;;-0.31;100.00
69982;BME280;57319;56.274;43.980;2024-03-02T01:37:58;101109.78;;;-0.38;100.00
69982;BME280;57319;56.274;43.980;2024-03-02T01:40:24;101112.78;;;-0.45;100.00
69982;BME280;57319;56.274;43.980;2024-03-02T01:42:53;101112.31;;;-0.38;100.00
69982;BME280;57319;56.274;43.980;2024-03-02T01:45:23;101114.59;;;-0.43;100.00
69982;BME280;57319;56.274;43.980;2024-03-02T01:47:49;101115.06;;;-0.50;100.00
69982;BME280;57319;56.274;43.980;2024-03-02T01:50:16;101116.72;;;-0.50;100.00
69982;BME280;57319;56.274;43.980;2024-03-02T01:52:49;101120.38;;;-0.45;100.00
69982;BME280;57319;56.274;43.980;2024-03-02T01:55:15;101123.34;;;-0.53;100.00
69982;BME280;57319;56.274;43.980;2024-03-02T01:57:41;101129.22;;;-0.54;100.00
69982;BME280;57319;56.274;43.980;2024-03-02T02:00:07;101129.31;;;-0.67;100.00
69982;BME280;57319;56.274;43.980;2024-03-02T02:02:33;101131.50;;;-0.73;100.00
69982;BME280;57319;56.274;43.980;2024-03-02T02:04:58;101115.97;;;-0.64;100.00
69982;BME280;57319;56.274;43.980;2024-03-02T02:07:24;101119.44;;;-0.62;100.00
69982;BME280;57319;56.274;43.980;2024-03-02T02:09:50;101120.66;;;-0.56;100.00
69982;BME280;57319;56.274;43.980;2024-03-02T02:12:16;101128.53;;;-0.66;100.00
69982;BME280;57319;56.274;43.980;2024-03-02T02:14:48;101124.41;;;-0.64;100.00
69982;BME280;57319;56.274;43.980;2024-03-02T02:17:16;101116.56;;;-0.54;100.00
69982;BME280;57319;56.274;43.980;2024-03-02T02:19:42;101120.03;;;-0.52;100.00
69982;BME280;57319;56.274;43.980;2024-03-02T02:22:09;101114.88;;;-0.53;100.00
69982;BME280;57319;56.274;43.980;2024-03-02T02:24:35;101114.97;;;-0.52;100.00
69982;BME280;57319;56.274;43.980;2024-03-02T02:27:00;101117.41;;;-0.53;100.00
69982;BME280;57319;56.274;43.980;2024-03-02T02:29:26;101122.88;;;-0.62;100.00
69982;BME280;57319;56.274;43.980;2024-03-02T02:31:52;101118.69;;;-0.76;100.00
69982;BME280;57319;56.274;43.980;2024-03-02T02:34:18;101121.34;;;-0.58;100.00
69982;BME280;57319;56.274;43.980;2024-03-02T02:36:44;101122.31;;;-0.56;100.00
69982;BME280;57319;56.274;43.980;2024-03-02T02:39:15;101118.34;;;-0.51;100.00
69982;BME280;57319;56.274;43.980;2024-03-02T02:41:42;101117.50;;;-0.52;100.00
69982;BME280;57319;56.274;43.980;2024-03-02T02:44:08;101121.69;;;-0.52;100.00
69982;BME280;57319;56.274;43.980;2024-03-02T02:46:36;101125.00;;;-0.53;100.00
69982;BME280;57319;56.274;43.980;2024-03-02T02:49:03;101124.84;;;-0.56;100.00
69982;BME280;57319;56.274;43.980;2024-03-02T02:51:29;101132.53;;;-0.55;100.00
69982;BME280;57319;56.274;43.980;2024-03-02T02:53:54;101125.72;;;-0.56;100.00
69982;BME280;57319;56.274;43.980;2024-03-02T02:56:20;101131.75;;;-0.54;100.00
69982;BME280;57319;56.274;43.980;2024-03-02T02:58:46;101132.34;;;-0.58;100.00
69982;BME280;57319;56.274;43.980;2024-03-02T03:01:11;101135.06;;;-0.55;100.00
69982;BME280;57319;56.274;43.980;2024-03-02T03:03:37;101128.31;;;-0.54;100.00
69982;BME280;57319;56.274;43.980;2024-03-02T03:06:03;101141.75;;;-0.55;100.00
69982;BME280;57319;56.274;43.980;2024-03-02T03:08:28;101137.53;;;-0.71;100.00
69982;BME280;57319;56.274;43.980;2024-03-02T03:10:54;101134.53;;;-0.64;100.00
69982;BME280;57319;56.274;43.980;2024-03-02T03:13:20;101132.88;;;-0.63;100.00
69982;BME280;57319;56.274;43.980;2024-03-02T03:15:45;101130.78;;;-0.56;100.00
69982;BME280;57319;56.274;43.980;2024-03-02T03:18:11;101126.75;;;-0.52;100.00
69982;BME280;57319;56.274;43.980;2024-03-02T03:20:37;101130.06;;;-0.53;100.00
69982;BME280;57319;56.274;43.980;2024-03-02T03:23:02;101131.53;;;-0.57;100.00
69982;BME280;57319;56.274;43.980;2024-03-02T03:25:30;101128.25;;;-0.56;100.00
69982;BME280;57319;56.274;43.980;2024-03-02T03:27:55;101131.53;;;-0.57;100.00
69982;BME280;57319;56.274;43.980;2024-03-02T03:30:21;101128.16;;;-0.57;100.00
69982;BME280;57319;56.274;43.980;2024-03-02T03:32:47;101134.00;;;-0.58;100.00
69982;BME280;57319;56.274;43.980;2024-03-02T03:35:14;101134.00;;;-0.58;100.00
69982;BME280;57319;56.274;43.980;2024-03-02T03:37:40;101132.25;;;-0.59;100.00
69982;BME280;57319;56.274;43.980;2024-03-02T03:40:06;101137.56;;;-0.55;100.00
69982;BME280;57319;56.274;43.980;2024-03-02T03:42:38;101141.94;;;-0.52;100.00
69982;BME280;57319;56.274;43.980;2024-03-02T03:45:05;101135.97;;;-0.53;100.00
69982;BME280;57319;56.274;43.980;2024-03-02T03:47:32;101142.00;;;-0.50;100.00
69982;BME280;57319;56.274;43.980;2024-03-02T03:49:58;101142.09;;;-0.49;100.00
69982;BME280;57319;56.274;43.980;2024-03-02T03:52:24;101147.06;;;-0.50;100.00
69982;BME280;57319;56.274;43.980;2024-03-02T03:54:50;101152.91;;;-0.52;100.00
69982;BME280;57319;56.274;43.980;2024-03-02T03:57:16;101148.63;;;-0.53;100.00
69982;BME280;57319;56.274;43.980;2024-03-02T03:59:41;101157.97;;;-0.52;100.00
69982;BME280;57319;56.274;43.980;2024-03-02T04:02:08;101157.97;;;-0.52;100.00
69982;BME280;57319;56.274;43.980;2024-03-02T04:04:34;101164.63;;;-0.54;100.00
69982;BME280;57319;56.274;43.980;2024-03-02T04:07:00;101171.47;;;-0.51;100.00
69982;BME280;57319;56.274;43.980;2024-03-02T04:09:26;101167.31;;;-0.50;100.00
69982;BME280;57319;56.274;43.980;2024-03-02T04:11:52;101170.69;;;-0.50;100.00
69982;BME280;57319;56.274;43.980;2024-03-02T04:14:18;101157.03;;;-0.54;100.00
69982;BME280;57319;56.274;43.980;2024-03-02T04:16:44;101167.22;;;-0.52;100.00
69982;BME280;57319;56.274;43.980;2024-03-02T04:19:09;101172.78;;;-0.43;100.00
69982;BME280;57319;56.274;43.980;2024-03-02T04:21:35;101169.47;;;-0.42;100.00
69982;BME280;57319;56.274;43.980;2024-03-02T04:24:01;101176.41;;;-0.69;100.00
69982;BME280;57319;56.274;43.980;2024-03-02T04:26:27;101171.25;;;-0.56;100.00
69982;BME280;57319;56.274;43.980;2024-03-02T04:28:53;101178.38;;;-0.48;100.00
69982;BME280;57319;56.274;43.980;2024-03-02T04:31:19;101172.00;;;-0.42;100.00
69982;BME280;57319;56.274;43.980;2024-03-02T04:33:46;101174.94;;;-0.34;100.00
69982;BME280;57319;56.274;43.980;2024-03-02T04:36:12;101175.09;;;-0.31;100.00
69982;BME280;57319;56.274;43.980;2024-03-02T04:38:38;101169.09;;;-0.33;100.00
69982;BME280;57319;56.274;43.980;2024-03-02T04:41:04;101177.47;;;-0.34;100.00
69982;BME280;57319;56.274;43.980;2024-03-02T04:43:31;101177.78;;;-0.28;100.00
69982;BME280;57319;56.274;43.980;2024-03-02T04:46:00;101179.47;;;-0.28;100.00
69982;BME280;57319;56.274;43.980;2024-03-02T04:48:26;101177.63;;;-0.31;100.00
69982;BME280;57319;56.274;43.980;2024-03-02T04:50:52;101177.63;;;-0.31;100.00
69982;BME280;57319;56.274;43.980;2024-03-02T04:53:18;101173.34;;;-0.32;100.00
69982;BME280;57319;56.274;43.980;2024-03-02T04:55:44;101177.56;;;-0.32;100.00
69982;BME280;57319;56.274;43.980;2024-03-02T04:58:09;101170.75;;;-0.33;100.00
69982;BME280;57319;56.274;43.980;2024-03-02T05:00:35;101172.56;;;-0.31;100.00
69982;BME280;57319;56.274;43.980;2024-03-02T05:03:02;101165.84;;;-0.30;100.00
69982;BME280;57319;56.274;43.980;2024-03-02T05:05:28;101169.88;;;-0.34;100.00
69982;BME280;57319;56.274;43.980;2024-03-02T05:07:53;101174.47;;;-0.27;100.00
69982;BME280;57319;56.274;43.980;2024-03-02T05:10:19;101176.22;;;-0.26;100.00
69982;BME280;57319;56.274;43.980;2024-03-02T05:12:45;101175.25;;;-0.28;100.00
69982;BME280;57319;56.274;43.980;2024-03-02T05:15:12;101177.47;;;-0.34;100.00
69982;BME280;57319;56.274;43.980;2024-03-02T05:17:42;101178.75;;;-0.26;100.00
69982;BME280;57319;56.274;43.980;2024-03-02T05:20:11;101179.63;;;-0.25;100.00
69982;BME280;57319;56.274;43.980;2024-03-02T05:22:37;101188.19;;;-0.23;100.00
69982;BME280;57319;56.274;43.980;2024-03-02T05:25:04;101183.97;;;-0.23;100.00
69982;BME280;57319;56.274;43.980;2024-03-02T05:27:31;101182.50;;;-0.19;100.00
69982;BME280;57319;56.274;43.980;2024-03-02T05:29:59;101175.69;;;-0.20;100.00
69982;BME280;57319;56.274;43.980;2024-03-02T05:32:25;101181.59;;;-0.20;100.00
69982;BME280;57319;56.274;43.980;2024-03-02T05:34:51;101184.94;;;-0.21;100.00
69982;BME280;57319;56.274;43.980;2024-03-02T05:37:17;101181.69;;;-0.18;100.00
69982;BME280;57319;56.274;43.980;2024-03-02T05:39:43;101185.25;;;-0.14;100.00
69982;BME280;57319;56.274;43.980;2024-03-02T05:42:09;101183.34;;;-0.19;100.00
69982;BME280;57319;56.274;43.980;2024-03-02T05:44:38;101191.19;;;-0.14;100.00
69982;BME280;57319;56.274;43.980;2024-03-02T05:47:03;101186.31;;;-0.11;100.00
69982;BME280;57319;56.274;43.980;2024-03-02T05:49:29;101191.59;;;-0.06;100.00
69982;BME280;57319;56.274;43.980;2024-03-02T05:51:56;101190.81;;;-0.05;100.00
69982;BME280;57319;56.274;43.980;2024-03-02T05:54:21;101193.44;;;-0.04;100.00
69982;BME280;57319;56.274;43.980;2024-03-02T05:56:47;101201.34;;;0.03;100.00
69982;BME280;57319;56.274;43.980;2024-03-02T05:59:13;101205.69;;;0.05;100.00
69982;BME280;57319;56.274;43.980;2024-03-02T06:01:42;101203.34;;;0.08;100.00
69982;BME280;57319;56.274;43.980;2024-03-02T06:04:09;101212.03;;;0.13;100.00
69982;BME280;57319;56.274;43.980;2024-03-02T06:06:37;101205.34;;;0.14;100.00
69982;BME280;57319;56.274;43.980;2024-03-02T06:09:04;101214.03;;;0.19;100.00
69982;BME280;57319;56.274;43.980;2024-03-02T06:11:40;101214.91;;;0.20;100.00
69982;BME280;57319;56.274;43.980;2024-03-02T06:14:07;101223.44;;;0.22;100.00
69982;BME280;57319;56.274;43.980;2024-03-02T06:16:33;101218.72;;;0.28;100.00
69982;BME280;57319;56.274;43.980;2024-03-02T06:18:59;101215.41;;;0.29;100.00
69982;BME280;57319;56.274;43.980;2024-03-02T06:21:25;101214.19;;;0.06;100.00
69982;BME280;57319;56.274;43.980;2024-03-02T06:23:51;101216.78;;;0.07;100.00
69982;BME280;57319;56.274;43.980;2024-03-02T06:26:17;101219.50;;;0.27;100.00
69982;BME280;57319;56.274;43.980;2024-03-02T06:28:44;101213.88;;;0.32;100.00
69982;BME280;57319;56.274;43.980;2024-03-02T06:31:10;101217.31;;;0.49;100.00
69982;BME280;57319;56.274;43.980;2024-03-02T06:33:35;101222.13;;;0.61;100.00
69982;BME280;57319;56.274;43.980;2024-03-02T06:36:01;101216.88;;;0.75;100.00
69982;BME280;57319;56.274;43.980;2024-03-02T06:38:27;101215.69;;;0.84;100.00
69982;BME280;57319;56.274;43.980;2024-03-02T06:40:53;101221.16;;;0.92;100.00
69982;BME280;57319;56.274;43.980;2024-03-02T06:43:19;101214.63;;;0.97;100.00
69982;BME280;57319;56.274;43.980;2024-03-02T06:45:52;101227.06;;;1.09;100.00
69982;BME280;57319;56.274;43.980;2024-03-02T06:48:18;101236.00;;;1.37;100.00
69982;BME280;57319;56.274;43.980;2024-03-02T06:50:47;101235.94;;;1.53;100.00
69982;BME280;57319;56.274;43.980;2024-03-02T06:53:16;101240.94;;;1.70;100.00
69982;BME280;57319;56.274;43.980;2024-03-02T06:55:46;101240.59;;;1.80;100.00
69982;BME280;57319;56.274;43.980;2024-03-02T06:58:13;101247.91;;;1.74;100.00
69982;BME280;57319;56.274;43.980;2024-03-02T07:00:41;101233.25;;;1.86;99.12
69982;BME280;57319;56.274;43.980;2024-03-02T07:03:07;101237.81;;;2.12;99.82
69982;BME280;57319;56.274;43.980;2024-03-02T07:05:32;101234.88;;;1.66;95.89
69982;BME280;57319;56.274;43.980;2024-03-02T07:07:58;101233.06;;;1.46;95.40
69982;BME280;57319;56.274;43.980;2024-03-02T07:10:24;101243.00;;;1.77;96.59
69982;BME280;57319;56.274;43.980;2024-03-02T07:12:50;101242.91;;;1.94;96.73
69982;BME280;57319;56.274;43.980;2024-03-02T07:15:15;101247.22;;;1.96;97.12
69982;BME280;57319;56.274;43.980;2024-03-02T07:17:55;101240.09;;;2.07;97.92
69982;BME280;57319;56.274;43.980;2024-03-02T07:20:21;101239.31;;;2.08;98.48
69982;BME280;57319;56.274;43.980;2024-03-02T07:22:47;101239.25;;;2.07;98.96
69982;BME280;57319;56.274;43.980;2024-03-02T07:25:13;101244.47;;;2.10;98.64
69982;BME280;57319;56.274;43.980;2024-03-02T07:27:39;101245.19;;;2.07;98.98
69982;BME280;57319;56.274;43.980;2024-03-02T07:30:06;101240.06;;;1.88;97.80
69982;BME280;57319;56.274;43.980;2024-03-02T07:32:32;101237.91;;;1.95;97.81
69982;BME280;57319;56.274;43.980;2024-03-02T07:34:57;101243.84;;;1.96;98.55
69982;BME280;57319;56.274;43.980;2024-03-02T07:37:23;101244.13;;;1.84;98.30
69982;BME280;57319;56.274;43.980;2024-03-02T07:39:50;101240.06;;;1.88;98.04
69982;BME280;57319;56.274;43.980;2024-03-02T07:42:17;101248.06;;;1.77;97.77
69982;BME280;57319;56.274;43.980;2024-03-02T07:44:45;101242.09;;;1.77;97.74
69982;BME280;57319;56.274;43.980;2024-03-02T07:47:11;101241.97;;;1.74;98.94
69982;BME280;57319;56.274;43.980;2024-03-02T07:49:37;101240.16;;;1.71;99.34
69982;BME280;57319;56.274;43.980;2024-03-02T07:52:03;101230.38;;;1.79;99.26
69982;BME280;57319;56.274;43.980;2024-03-02T07:54:29;101235.84;;;1.88;99.59
69982;BME280;57319;56.274;43.980;2024-03-02T07:56:55;101237.19;;;1.98;99.91
69982;BME280;57319;56.274;43.980;2024-03-02T07:59:20;101238.66;;;1.57;96.30
69982;BME280;57319;56.274;43.980;2024-03-02T08:01:49;101243.22;;;1.64;95.82
69982;BME280;57319;56.274;43.980;2024-03-02T08:04:15;101234.91;;;2.04;97.52
69982;BME280;57319;56.274;43.980;2024-03-02T08:06:41;101245.50;;;2.13;96.79
69982;BME280;57319;56.274;43.980;2024-03-02T08:09:07;101243.06;;;2.16;96.04
69982;BME280;57319;56.274;43.980;2024-03-02T08:11:35;101253.41;;;2.01;95.25
69982;BME280;57319;56.274;43.980;2024-03-02T08:14:01;101251.00;;;2.04;94.65
69982;BME280;57319;56.274;43.980;2024-03-02T08:16:27;101243.69;;;2.11;95.81
69982;BME280;57319;56.274;43.980;2024-03-02T08:18:53;101243.16;;;2.18;96.12
69982;BME280;57319;56.274;43.980;2024-03-02T08:21:19;101249.25;;;2.22;96.22
69982;BME280;57319;56.274;43.980;2024-03-02T08:23:45;101246.63;;;2.20;95.61
69982;BME280;57319;56.274;43.980;2024-03-02T08:26:11;101240.38;;;1.94;94.66
69982;BME280;57319;56.274;43.980;2024-03-02T08:28:37;101240.94;;;1.88;93.42
69982;BME280;57319;56.274;43.980;2024-03-02T08:31:04;101242.28;;;2.17;94.53
69982;BME280;57319;56.274;43.980;2024-03-02T08:33:29;101238.56;;;2.48;94.93
69982;BME280;57319;56.274;43.980;2024-03-02T08:35:56;101238.28;;;2.62;94.72
69982;BME280;57319;56.274;43.980;2024-03-02T08:38:22;101239.84;;;2.78;93.28
69982;BME280;57319;56.274;43.980;2024-03-02T08:40:49;101235.47;;;2.95;93.46
69982;BME280;57319;56.274;43.980;2024-03-02T08:43:15;101234.91;;;2.61;90.10
69982;BME280;57319;56.274;43.980;2024-03-02T08:45:41;101240.50;;;3.14;90.43
69982;BME280;57319;56.274;43.980;2024-03-02T08:48:07;101239.69;;;3.36;90.78
69982;BME280;57319;56.274;43.980;2024-03-02T08:50:36;101242.94;;;3.53;89.54
69982;BME280;57319;56.274;43.980;2024-03-02T08:53:03;101242.03;;;3.74;90.49
69982;BME280;57319;56.274;43.980;2024-03-02T08:55:29;101234.53;;;4.00;88.52
69982;BME280;57319;56.274;43.980;2024-03-02T08:57:55;101235.13;;;4.39;89.20
69982;BME280;57319;56.274;43.980;2024-03-02T09:00:22;101234.88;;;4.80;88.67
69982;BME280;57319;56.274;43.980;2024-03-02T09:02:48;101231.81;;;4.90;85.36
69982;BME280;57319;56.274;43.980;2024-03-02T09:05:14;101231.44;;;4.55;82.57
69982;BME280;57319;56.274;43.980;2024-03-02T09:07:40;101226.97;;;4.48;83.32
69982;BME280;57319;56.274;43.980;2024-03-02T09:10:06;101225.50;;;4.55;84.32
69982;BME280;57319;56.274;43.980;2024-03-02T09:12:32;101234.66;;;4.50;82.32
69982;BME280;57319;56.274;43.980;2024-03-02T09:15:00;101228.38;;;4.40;82.82
69982;BME280;57319;56.274;43.980;2024-03-02T09:17:26;101231.75;;;4.16;82.31
69982;BME280;57319;56.274;43.980;2024-03-02T09:19:51;101235.84;;;3.90;85.23
69982;BME280;57319;56.274;43.980;2024-03-02T09:22:20;101231.88;;;3.32;82.64
69982;BME280;57319;56.274;43.980;2024-03-02T09:24:46;101236.34;;;3.16;84.43
69982;BME280;57319;56.274;43.980;2024-03-02T09:27:11;101234.00;;;3.21;85.73
69982;BME280;57319;56.274;43.980;2024-03-02T09:29:37;101237.59;;;2.85;85.74
69982;BME280;57319;56.274;43.980;2024-03-02T09:32:04;101240.31;;;3.10;86.62
69982;BME280;57319;56.274;43.980;2024-03-02T09:34:31;101237.59;;;3.26;87.30
69982;BME280;57319;56.274;43.980;2024-03-02T09:36:57;101243.81;;;3.33;88.04
69982;BME280;57319;56.274;43.980;2024-03-02T09:39:23;101247.03;;;3.29;86.66
69982;BME280;57319;56.274;43.980;2024-03-02T09:41:51;101238.50;;;3.28;87.00
69982;BME280;57319;56.274;43.980;2024-03-02T09:44:17;101246.03;;;3.25;87.45
69982;BME280;57319;56.274;43.980;2024-03-02T09:46:43;101248.13;;;3.14;87.51
69982;BME280;57319;56.274;43.980;2024-03-02T09:49:12;101252.88;;;3.05;86.96
69982;BME280;57319;56.274;43.980;2024-03-02T09:51:38;101262.38;;;2.89;88.12
69982;BME280;57319;56.274;43.980;2024-03-02T09:54:07;101261.72;;;2.74;87.71
69982;BME280;57319;56.274;43.980;2024-03-02T09:56:35;101257.47;;;2.75;87.66
69982;BME280;57319;56.274;43.980;2024-03-02T09:59:01;101257.44;;;2.53;87.61
69982;BME280;57319;56.274;43.980;2024-03-02T10:01:28;101254.28;;;2.40;87.39
69982;BME280;57319;56.274;43.980;2024-03-02T10:03:55;101263.38;;;1.97;88.64
69982;BME280;57319;56.274;43.980;2024-03-02T10:06:26;101255.91;;;2.19;90.15
69982;BME280;57319;56.274;43.980;2024-03-02T10:08:53;101255.00;;;2.37;90.27
69982;BME280;57319;56.274;43.980;2024-03-02T10:11:29;101251.50;;;2.53;90.48
69982;BME280;57319;56.274;43.980;2024-03-02T10:14:14;101255.94;;;2.78;91.72
69982;BME280;57319;56.274;43.980;2024-03-02T10:16:44;101265.63;;;2.87;91.13
69982;BME280;57319;56.274;43.980;2024-03-02T10:21:42;101265.72;;;2.88;90.79
69982;BME280;57319;56.274;43.980;2024-03-02T10:24:07;101263.25;;;2.90;90.71
69982;BME280;57319;56.274;43.980;2024-03-02T10:26:33;101268.34;;;2.90;91.09
69982;BME280;57319;56.274;43.980;2024-03-02T10:28:59;101268.66;;;2.78;90.04
69982;BME280;57319;56.274;43.980;2024-03-02T10:31:25;101265.34;;;2.60;89.53
69982;BME280;57319;56.274;43.980;2024-03-02T10:33:57;101268.88;;;2.44;88.67
69982;BME280;57319;56.274;43.980;2024-03-02T10:36:23;101275.16;;;2.32;90.46
69982;BME280;57319;56.274;43.980;2024-03-02T10:38:52;101274.47;;;2.36;90.61
69982;BME280;57319;56.274;43.980;2024-03-02T10:41:23;101276.63;;;2.47;90.72
69982;BME280;57319;56.274;43.980;2024-03-02T10:43:51;101270.44;;;2.60;92.13
69982;BME280;57319;56.274;43.980;2024-03-02T10:46:19;101273.22;;;2.66;90.29
69982;BME280;57319;56.274;43.980;2024-03-02T10:48:46;101282.72;;;2.89;88.78
69982;BME280;57319;56.274;43.980;2024-03-02T10:51:11;101275.75;;;3.05;89.83
69982;BME280;57319;56.274;43.980;2024-03-02T10:53:37;101276.94;;;2.94;87.69
69982;BME280;57319;56.274;43.980;2024-03-02T10:56:07;101281.09;;;3.11;88.14
69982;BME280;57319;56.274;43.980;2024-03-02T10:58:33;101282.97;;;3.15;87.33
69982;BME280;57319;56.274;43.980;2024-03-02T11:01:02;101269.72;;;3.03;87.26
69982;BME280;57319;56.274;43.980;2024-03-02T11:03:32;101281.69;;;3.05;88.39
69982;BME280;57319;56.274;43.980;2024-03-02T11:05:59;101274.25;;;3.10;87.22
69982;BME280;57319;56.274;43.980;2024-03-02T11:08:27;101288.38;;;3.03;87.31
69982;BME280;57319;56.274;43.980;2024-03-02T11:11:07;101284.59;;;3.13;87.36
69982;BME280;57319;56.274;43.980;2024-03-02T11:13:37;101291.25;;;3.11;87.86
69982;BME280;57319;56.274;43.980;2024-03-02T11:16:35;101283.38;;;3.05;87.48
69982;BME280;57319;56.274;43.980;2024-03-02T11:19:07;101288.72;;;3.11;87.70
69982;BME280;57319;56.274;43.980;2024-03-02T11:21:34;101287.81;;;3.09;86.95
69982;BME280;57319;56.274;43.980;2024-03-02T11:24:15;101292.78;;;3.08;86.99
69982;BME280;57319;56.274;43.980;2024-03-02T11:26:46;101288.59;;;3.08;86.69
69982;BME280;57319;56.274;43.980;2024-03-02T11:32:01;101296.63;;;2.98;86.39
69982;BME280;57319;56.274;43.980;2024-03-02T11:34:32;101290.81;;;3.00;87.23
69982;BME280;57319;56.274;43.980;2024-03-02T11:36:58;101291.75;;;3.02;87.47
69982;BME280;57319;56.274;43.980;2024-03-02T11:39:27;101288.72;;;3.11;88.76
69982;BME280;57319;56.274;43.980;2024-03-02T11:41:53;101293.88;;;3.13;88.49
69982;BME280;57319;56.274;43.980;2024-03-02T11:44:19;101292.69;;;3.04;87.48
69982;BME280;57319;56.274;43.980;2024-03-02T11:46:51;101298.44;;;3.00;87.65
69982;BME280;57319;56.274;43.980;2024-03-02T11:52:01;101293.19;;;2.76;89.11
69982;BME280;57319;56.274;43.980;2024-03-02T11:54:29;101300.25;;;2.83;89.48
69982;BME280;57319;56.274;43.980;2024-03-02T11:56:58;101302.81;;;2.83;87.43
69982;BME280;57319;56.274;43.980;2024-03-02T11:59:26;101304.56;;;2.84;87.59
69982;BME280;57319;56.274;43.980;2024-03-02T12:01:52;101300.31;;;2.85;88.85
69982;BME280;57319;56.274;43.980;2024-03-02T12:04:19;101301.19;;;2.85;88.73
69982;BME280;57319;56.274;43.980;2024-03-02T12:06:45;101305.34;;;2.83;88.25
69982;BME280;57319;56.274;43.980;2024-03-02T12:09:12;101315.78;;;2.89;88.47
69982;BME280;57319;56.274;43.980;2024-03-02T12:11:38;101312.50;;;2.92;89.57
69982;BME280;57319;56.274;43.980;2024-03-02T12:14:03;101314.72;;;2.84;88.42
69982;BME280;57319;56.274;43.980;2024-03-02T12:16:29;101311.56;;;2.70;88.41
69982;BME280;57319;56.274;43.980;2024-03-02T12:18:55;101316.31;;;2.63;87.94
69982;BME280;57319;56.274;43.980;2024-03-02T12:21:21;101319.94;;;2.68;88.52
69982;BME280;57319;56.274;43.980;2024-03-02T12:23:47;101323.94;;;2.63;88.91
69982;BME280;57319;56.274;43.980;2024-03-02T12:26:13;101324.13;;;2.48;89.15
69982;BME280;57319;56.274;43.980;2024-03-02T12:28:38;101331.13;;;2.34;89.18
69982;BME280;57319;56.274;43.980;2024-03-02T12:31:04;101322.84;;;2.20;89.81
69982;BME280;57319;56.274;43.980;2024-03-02T12:33:30;101320.91;;;2.14;91.71
69982;BME280;57319;56.274;43.980;2024-03-02T12:35:57;101323.78;;;2.04;91.32
69982;BME280;57319;56.274;43.980;2024-03-02T12:38:23;101321.00;;;1.98;91.34
69982;BME280;57319;56.274;43.980;2024-03-02T12:40:51;101318.59;;;2.01;91.43
69982;BME280;57319;56.274;43.980;2024-03-02T12:43:18;101321.97;;;2.01;92.60
69982;BME280;57319;56.274;43.980;2024-03-02T12:45:43;101321.13;;;2.01;93.08
69982;BME280;57319;56.274;43.980;2024-03-02T12:48:09;101324.00;;;2.09;92.95
69982;BME280;57319;56.274;43.980;2024-03-02T12:50:35;101323.44;;;2.14;92.99
69982;BME280;57319;56.274;43.980;2024-03-02T12:53:01;101317.13;;;2.06;91.85